createdAt,value
2023-04-02T00:00:10.973Z,8.44
2023-04-02T00:02:48.151Z,8.47
2023-04-02T00:05:16.732Z,8.57
2023-04-02T00:07:49.377Z,8.50
2023-04-02T00:10:27.167Z,8.56
2023-04-02T00:13:09.470Z,8.65
2023-04-02T00:15:40.501Z,8.70
2023-04-02T00:18:18.697Z,8.70
2023-04-02T00:20:53.108Z,8.70
2023-04-02T00:23:22.441Z,8.71
2023-04-02T00:25:51.013Z,8.79
2023-04-02T00:28:22.982Z,8.73
2023-04-02T00:30:58.522Z,8.75
2023-04-02T00:33:28.931Z,8.81
2023-04-02T00:35:57.531Z,8.88
2023-04-02T00:38:32.987Z,8.79
2023-04-02T00:41:06.365Z,8.76
2023-04-02T00:43:37.415Z,8.89
2023-04-02T00:46:14.272Z,8.73
2023-04-02T00:48:46.006Z,8.83
2023-04-02T00:51:18.120Z,8.82
2023-04-02T00:53:49.246Z,8.80
2023-04-02T00:56:29.345Z,8.80
2023-04-02T00:58:58.612Z,8.75
2023-04-02T01:01:35.780Z,8.83
2023-04-02T01:04:25.812Z,8.93
2023-04-02T01:06:54.516Z,8.92
2023-04-02T01:09:44.988Z,8.81
2023-04-02T01:12:19.252Z,8.74
2023-04-02T01:15:08.451Z,8.77
2023-04-02T01:18:18.157Z,8.75
2023-04-02T01:21:11.951Z,8.70
2023-04-02T01:24:01.513Z,8.64
2023-04-02T01:26:58.116Z,8.54
2023-04-02T01:29:51.308Z,8.54
2023-04-02T01:32:22.765Z,8.49
2023-04-02T01:34:52.599Z,8.52
2023-04-02T01:37:46.870Z,8.52
2023-04-02T01:40:41.898Z,8.53
2023-04-02T01:43:33.278Z,8.38
2023-04-02T01:46:23.520Z,8.48
2023-04-02T01:48:54.096Z,8.37
2023-04-02T01:51:31.851Z,8.38
2023-04-02T01:54:06.317Z,8.32
2023-04-02T01:56:35.674Z,8.37
2023-04-02T01:59:06.032Z,8.38
2023-04-02T02:01:42.732Z,8.36
2023-04-02T02:04:16.208Z,8.39
2023-04-02T02:06:45.336Z,8.48
2023-04-02T02:09:32.785Z,8.37
2023-04-02T02:12:03.061Z,8.40
2023-04-02T02:14:32.027Z,8.52
2023-04-02T02:17:02.518Z,8.49
2023-04-02T02:19:42.664Z,8.45
2023-04-02T02:22:31.297Z,8.56
2023-04-02T02:25:03.016Z,8.60
2023-04-02T02:27:42.895Z,8.57
2023-04-02T02:30:15.654Z,8.60
2023-04-02T02:32:53.964Z,8.61
2023-04-02T02:35:29.287Z,8.48
2023-04-02T02:38:24.459Z,8.51
2023-04-02T02:40:58.528Z,8.54
2023-04-02T02:43:27.267Z,8.50
2023-04-02T02:45:57.770Z,8.47
2023-04-02T02:48:37.403Z,8.59
2023-04-02T02:51:21.940Z,8.47
2023-04-02T02:53:54.612Z,8.62
2023-04-02T02:56:24.894Z,8.51
2023-04-02T02:58:53.815Z,8.39
2023-04-02T03:01:23.059Z,8.41
2023-04-02T03:03:54.937Z,8.47
2023-04-02T03:06:24.591Z,8.44
2023-04-02T03:09:21.624Z,8.48
2023-04-02T03:12:00.059Z,8.44
2023-04-02T03:14:44.233Z,8.56
2023-04-02T03:17:21.118Z,8.52
2023-04-02T03:19:54.701Z,8.40
2023-04-02T03:22:42.924Z,8.48
2023-04-02T03:25:20.009Z,8.57
2023-04-02T03:27:54.053Z,8.78
2023-04-02T03:30:43.050Z,8.54
2023-04-02T03:33:22.219Z,8.54
2023-04-02T03:36:01.641Z,8.46
2023-04-02T03:38:44.887Z,8.60
2023-04-02T03:41:31.771Z,8.47
2023-04-02T03:44:07.812Z,8.46
2023-04-02T03:46:48.122Z,8.42
2023-04-02T03:49:42.531Z,8.39
2023-04-02T03:52:12.401Z,8.51
2023-04-02T03:54:53.658Z,8.52
2023-04-02T03:57:33.583Z,8.46
2023-04-02T04:00:05.636Z,8.52
2023-04-02T04:02:52.832Z,8.31
2023-04-02T04:05:35.812Z,8.46
2023-04-02T04:08:16.363Z,8.56
2023-04-02T04:10:45.696Z,8.62
2023-04-02T04:13:18.725Z,8.50
2023-04-02T04:16:00.501Z,8.77
2023-04-02T04:18:47.812Z,8.66
2023-04-02T04:21:50.962Z,8.68
2023-04-02T04:24:27.395Z,8.92
2023-04-02T04:27:09.548Z,8.76
2023-04-02T04:30:03.990Z,8.75
2023-04-02T04:32:50.527Z,8.74
2023-04-02T04:35:35.609Z,8.78
2023-04-02T04:38:32.678Z,8.78
2023-04-02T04:41:15.043Z,8.64
2023-04-02T04:43:52.175Z,8.82
2023-04-02T04:46:33.609Z,8.86
2023-04-02T04:49:26.305Z,8.84
2023-04-02T04:52:22.755Z,8.82
2023-04-02T04:54:51.843Z,8.82
2023-04-02T04:57:38.365Z,8.96
2023-04-02T05:00:37.608Z,9.02
2023-04-02T05:03:31.866Z,9.04
2023-04-02T05:06:13.175Z,9.04
2023-04-02T05:08:48.044Z,9.08
2023-04-02T05:11:32.372Z,9.09
2023-04-02T05:14:16.673Z,9.15
2023-04-02T05:17:05.330Z,9.30
2023-04-02T05:19:56.992Z,9.28
2023-04-02T05:22:42.742Z,9.24
2023-04-02T05:25:18.754Z,9.26
2023-04-02T05:28:05.794Z,9.28
2023-04-02T05:30:46.698Z,9.33
2023-04-02T05:33:27.951Z,9.47
2023-04-02T05:36:01.538Z,9.54
2023-04-02T05:38:35.545Z,9.77
2023-04-02T05:41:16.925Z,9.80
2023-04-02T05:43:48.640Z,9.85
2023-04-02T05:46:21.505Z,9.99
2023-04-02T05:48:57.168Z,10.15
2023-04-02T05:51:38.821Z,10.27
2023-04-02T05:54:21.240Z,10.39
2023-04-02T05:56:55.382Z,10.31
2023-04-02T05:59:29.918Z,10.40
2023-04-02T06:02:03.556Z,10.53
2023-04-02T06:04:51.484Z,10.66
2023-04-02T06:07:28.379Z,10.64
2023-04-02T06:10:17.912Z,10.44
2023-04-02T06:13:07.630Z,10.36
2023-04-02T06:15:38.610Z,10.37
2023-04-02T06:18:24.143Z,10.27
2023-04-02T06:20:53.781Z,10.46
2023-04-02T06:23:22.234Z,10.68
2023-04-02T06:25:59.305Z,10.85
2023-04-02T06:28:48.917Z,10.94
2023-04-02T06:31:35.059Z,10.99
2023-04-02T06:34:07.608Z,11.48
2023-04-02T06:36:36.492Z,11.43
2023-04-02T06:39:09.242Z,11.54
2023-04-02T06:41:37.729Z,11.71
2023-04-02T06:44:16.412Z,11.70
2023-04-02T06:46:57.942Z,11.87
2023-04-02T06:49:40.227Z,12.01
2023-04-02T06:52:24.244Z,12.05
2023-04-02T06:54:53.517Z,12.03
2023-04-02T06:57:22.759Z,12.13
2023-04-02T06:59:51.933Z,12.11
2023-04-02T07:02:37.533Z,12.10
2023-04-02T07:05:09.423Z,11.86
2023-04-02T07:07:38.664Z,11.94
2023-04-02T07:10:09.313Z,11.96
2023-04-02T07:12:38.466Z,11.92
2023-04-02T07:15:07.296Z,11.78
2023-04-02T07:17:35.762Z,11.82
2023-04-02T07:20:04.437Z,11.74
2023-04-02T07:22:32.914Z,11.54
2023-04-02T07:25:01.634Z,11.60
2023-04-02T07:27:30.793Z,11.80
2023-04-02T07:29:59.088Z,11.57
2023-04-02T07:32:27.249Z,11.73
2023-04-02T07:34:55.857Z,11.76
2023-04-02T07:37:24.021Z,11.67
2023-04-02T07:39:52.292Z,11.63
2023-04-02T07:42:21.152Z,11.65
2023-04-02T07:44:49.981Z,11.77
2023-04-02T07:47:18.012Z,11.97
2023-04-02T07:49:47.055Z,11.89
2023-04-02T07:52:15.813Z,12.10
2023-04-02T07:54:44.007Z,12.23
2023-04-02T07:57:12.388Z,12.40
2023-04-02T07:59:41.743Z,12.49
2023-04-02T08:02:27.971Z,12.74
2023-04-02T08:04:56.904Z,12.90
2023-04-02T08:07:25.038Z,13.09
2023-04-02T08:09:53.162Z,13.03
2023-04-02T08:12:22.214Z,12.97
2023-04-02T08:14:50.431Z,13.18
2023-04-02T08:17:18.753Z,13.34
2023-04-02T08:19:54.769Z,13.16
2023-04-02T08:22:23.560Z,13.34
2023-04-02T08:24:52.808Z,13.24
2023-04-02T08:27:21.288Z,13.39
2023-04-02T08:29:49.648Z,13.46
2023-04-02T08:32:18.772Z,13.49
2023-04-02T08:34:46.800Z,13.54
2023-04-02T08:37:15.221Z,13.68
2023-04-02T08:39:43.949Z,13.54
2023-04-02T08:42:27.358Z,13.59
2023-04-02T08:45:25.487Z,13.33
2023-04-02T08:48:10.101Z,13.24
2023-04-02T08:50:41.762Z,13.42
2023-04-02T08:53:22.961Z,13.32
2023-04-02T08:56:06.110Z,13.46
2023-04-02T08:58:54.441Z,13.28
2023-04-02T09:01:45.065Z,13.41
2023-04-02T09:04:24.822Z,13.38
2023-04-02T09:06:56.355Z,13.38
2023-04-02T09:09:25.489Z,13.22
2023-04-02T09:12:01.340Z,13.22
2023-04-02T09:14:52.690Z,13.34
2023-04-02T09:17:24.980Z,13.41
2023-04-02T09:20:03.417Z,13.50
2023-04-02T09:22:34.126Z,13.43
2023-04-02T09:25:05.683Z,13.56
2023-04-02T09:27:36.551Z,13.59
2023-04-02T09:30:32.494Z,13.58
2023-04-02T09:33:07.965Z,13.76
2023-04-02T09:35:51.458Z,13.69
2023-04-02T09:38:28.391Z,13.99
2023-04-02T09:41:07.566Z,13.93
2023-04-02T09:43:38.470Z,13.91
2023-04-02T09:46:22.717Z,13.87
2023-04-02T09:48:56.038Z,13.89
2023-04-02T09:51:26.821Z,14.03
2023-04-02T09:54:04.362Z,14.17
2023-04-02T09:56:35.493Z,14.17
2023-04-02T09:59:13.298Z,14.21
2023-04-02T10:01:47.830Z,14.30
2023-04-02T10:04:45.135Z,14.42
2023-04-02T10:07:34.597Z,14.58
2023-04-02T10:10:16.699Z,14.52
2023-04-02T10:12:50.325Z,14.64
2023-04-02T10:15:27.637Z,14.47
2023-04-02T10:18:25.872Z,14.59
2023-04-02T10:20:56.438Z,14.80
2023-04-02T10:23:29.522Z,14.85
2023-04-02T10:26:53.073Z,14.74
2023-04-02T10:29:27.212Z,14.73
2023-04-02T10:32:02.459Z,14.66
2023-04-02T10:34:45.769Z,14.87
2023-04-02T10:37:27.586Z,15.00
2023-04-02T10:40:25.703Z,15.11
2023-04-02T10:43:13.293Z,15.06
2023-04-02T10:45:49.394Z,15.20
2023-04-02T10:48:33.365Z,15.69
2023-04-02T10:51:07.419Z,15.74
2023-04-02T10:54:01.576Z,15.63
2023-04-02T10:56:44.098Z,15.90
2023-04-02T10:59:28.073Z,15.82
2023-04-02T11:01:58.275Z,16.12
2023-04-02T11:04:41.963Z,16.35
2023-04-02T11:07:22.695Z,16.57
2023-04-02T11:09:56.428Z,16.97
2023-04-02T11:12:44.606Z,16.78
2023-04-02T11:15:20.536Z,17.19
2023-04-02T11:17:49.109Z,17.00
2023-04-02T11:20:45.916Z,17.09
2023-04-02T11:23:20.970Z,17.17
2023-04-02T11:25:49.938Z,16.95
2023-04-02T11:28:31.723Z,16.64
2023-04-02T11:31:00.987Z,16.90
2023-04-02T11:33:39.911Z,17.10
2023-04-02T11:36:48.297Z,17.00
2023-04-02T11:39:34.809Z,17.19
2023-04-02T11:42:24.966Z,16.75
2023-04-02T11:44:54.728Z,16.84
2023-04-02T11:47:25.196Z,16.74
2023-04-02T11:50:01.470Z,16.64
2023-04-02T11:52:52.978Z,16.72
2023-04-02T11:55:32.805Z,16.77
2023-04-02T11:58:22.890Z,16.20
2023-04-02T12:01:08.081Z,16.03
2023-04-02T12:03:51.599Z,15.50
2023-04-02T12:06:39.911Z,15.33
2023-04-02T12:09:38.104Z,15.57
2023-04-02T12:12:24.947Z,15.48
2023-04-02T12:14:58.313Z,15.44
2023-04-02T12:17:31.322Z,15.42
2023-04-02T12:20:08.459Z,15.28
2023-04-02T12:22:41.382Z,15.24
2023-04-02T12:25:29.455Z,14.94
2023-04-02T12:28:18.777Z,15.08
2023-04-02T12:30:48.951Z,14.87
2023-04-02T12:33:20.490Z,14.78
2023-04-02T12:36:00.156Z,14.89
2023-04-02T12:38:31.275Z,15.09
2023-04-02T12:41:03.770Z,15.42
2023-04-02T12:43:38.142Z,15.65
2023-04-02T12:46:09.058Z,15.74
2023-04-02T12:48:39.405Z,15.66
2023-04-02T12:51:07.997Z,15.68
2023-04-02T12:53:41.407Z,15.69
2023-04-02T12:56:21.432Z,15.55
2023-04-02T12:59:00.596Z,15.73
2023-04-02T13:01:31.763Z,15.82
2023-04-02T13:04:14.962Z,15.86
2023-04-02T13:06:52.226Z,15.84
2023-04-02T13:09:47.013Z,15.69
2023-04-02T13:12:40.734Z,15.90
2023-04-02T13:15:25.847Z,15.73
2023-04-02T13:18:18.755Z,15.76
2023-04-02T13:20:59.365Z,15.70
2023-04-02T13:23:30.954Z,15.75
2023-04-02T13:26:02.307Z,15.90
2023-04-02T13:28:30.996Z,15.98
2023-04-02T13:30:59.103Z,15.93
2023-04-02T13:33:27.661Z,15.99
2023-04-02T13:35:56.534Z,15.96
2023-04-02T13:38:24.687Z,16.04
2023-04-02T13:40:53.252Z,16.03
2023-04-02T13:43:21.860Z,15.95
2023-04-02T13:45:54.271Z,16.09
2023-04-02T13:48:27.045Z,16.07
2023-04-02T13:50:55.529Z,16.00
2023-04-02T13:53:33.666Z,16.08
2023-04-02T13:56:02.019Z,16.00
2023-04-02T13:58:30.623Z,16.02
2023-04-02T14:00:59.304Z,16.16
2023-04-02T14:03:28.165Z,16.13
2023-04-02T14:06:28.105Z,16.42
2023-04-02T14:09:10.333Z,16.11
2023-04-02T14:12:01.444Z,16.07
2023-04-02T14:15:12.519Z,16.05
2023-04-02T14:18:05.692Z,15.70
2023-04-02T14:21:12.558Z,15.23
2023-04-02T14:24:07.160Z,15.25
2023-04-02T14:27:23.198Z,15.01
2023-04-02T14:30:12.123Z,14.31
2023-04-02T14:33:17.799Z,13.88
2023-04-02T14:36:05.812Z,13.52
2023-04-02T14:38:49.975Z,13.16
2023-04-02T14:41:39.740Z,12.86
2023-04-02T14:44:10.729Z,12.55
2023-04-02T14:46:39.577Z,12.39
2023-04-02T14:49:35.043Z,11.98
2023-04-02T14:52:06.235Z,11.79
2023-04-02T14:54:50.192Z,11.41
2023-04-02T14:57:39.200Z,11.29
2023-04-02T15:00:33.727Z,10.93
2023-04-02T15:03:18.560Z,10.81
2023-04-02T15:05:54.451Z,10.76
2023-04-02T15:08:27.252Z,10.53
2023-04-02T15:11:06.532Z,10.52
2023-04-02T15:13:51.489Z,10.38
2023-04-02T15:16:23.473Z,10.38
2023-04-02T15:18:55.348Z,10.26
2023-04-02T15:21:57.538Z,10.41
2023-04-02T15:24:40.260Z,10.42
2023-04-02T15:27:56.440Z,10.39
2023-04-02T15:30:35.329Z,10.33
2023-04-02T15:33:23.798Z,10.41
2023-04-02T15:35:59.914Z,10.38
2023-04-02T15:38:36.351Z,10.36
2023-04-02T15:41:10.903Z,10.11
2023-04-02T15:43:56.907Z,10.58
2023-04-02T15:46:38.139Z,10.74
2023-04-02T15:49:31.909Z,10.93
2023-04-02T15:52:11.491Z,11.13
2023-04-02T15:54:58.840Z,11.29
2023-04-02T15:57:54.768Z,11.43
2023-04-02T16:00:33.557Z,11.52
2023-04-02T16:03:34.913Z,11.63
2023-04-02T16:06:34.301Z,11.66
2023-04-02T16:09:16.154Z,11.70
2023-04-02T16:11:44.880Z,11.80
2023-04-02T16:14:34.020Z,11.88
2023-04-02T16:17:23.888Z,11.73
2023-04-02T16:20:18.701Z,11.87
2023-04-02T16:23:00.588Z,11.69
2023-04-02T16:25:44.280Z,11.72
2023-04-02T16:28:28.534Z,11.78
2023-04-02T16:31:09.664Z,11.72
2023-04-02T16:34:00.037Z,11.70
2023-04-02T16:37:09.705Z,11.66
2023-04-02T16:39:59.546Z,11.55
2023-04-02T16:42:43.469Z,11.52
2023-04-02T16:45:31.407Z,11.53
2023-04-02T16:48:04.891Z,11.41
2023-04-02T16:50:39.172Z,11.38
2023-04-02T16:53:24.811Z,11.45
2023-04-02T16:56:21.127Z,11.13
2023-04-02T16:59:14.701Z,11.00
2023-04-02T17:01:54.877Z,10.85
2023-04-02T17:04:28.126Z,10.78
2023-04-02T17:07:26.378Z,10.79
2023-04-02T17:10:14.388Z,10.68
2023-04-02T17:12:51.318Z,10.61
2023-04-02T17:15:32.203Z,10.37
2023-04-02T17:18:01.933Z,10.39
2023-04-02T17:20:31.158Z,10.20
2023-04-02T17:22:59.808Z,10.35
2023-04-02T17:25:35.370Z,10.09
2023-04-02T17:28:12.135Z,10.17
2023-04-02T17:30:45.022Z,9.90
2023-04-02T17:33:18.271Z,10.06
2023-04-02T17:36:22.337Z,9.92
2023-04-02T17:39:14.335Z,9.72
2023-04-02T17:41:45.646Z,9.78
2023-04-02T17:44:42.961Z,9.73
2023-04-02T17:47:31.570Z,9.63
2023-04-02T17:50:35.359Z,9.61
2023-04-02T17:53:25.900Z,9.58
2023-04-02T17:56:32.878Z,9.41
2023-04-02T17:59:38.402Z,9.59
2023-04-02T18:02:35.776Z,9.55
2023-04-02T18:05:47.978Z,9.42
2023-04-02T18:08:53.856Z,9.29
2023-04-02T18:11:55.312Z,9.25
2023-04-02T18:15:03.097Z,9.31
2023-04-02T18:17:37.546Z,9.29
2023-04-02T18:20:20.128Z,9.27
2023-04-02T18:23:33.627Z,9.20
2023-04-02T18:26:11.451Z,7.51
2023-04-02T18:29:17.313Z,9.00
2023-04-02T18:31:46.424Z,9.32
2023-04-02T18:34:43.224Z,9.20
2023-04-02T18:37:32.051Z,9.04
2023-04-02T18:40:39.486Z,9.01
2023-04-02T18:43:20.702Z,8.99
2023-04-02T18:46:15.839Z,8.81
2023-04-02T18:48:47.276Z,8.91
2023-04-02T18:51:24.389Z,8.75
2023-04-02T18:54:15.825Z,8.79
2023-04-02T18:56:45.021Z,8.74
2023-04-02T18:59:51.967Z,8.66
2023-04-02T19:02:21.138Z,8.68
2023-04-02T19:05:02.157Z,8.78
2023-04-02T19:07:36.180Z,8.64
2023-04-02T19:10:34.407Z,8.67
2023-04-02T19:13:12.539Z,8.44
2023-04-02T19:16:11.255Z,8.61
2023-04-02T19:18:55.208Z,8.51
2023-04-02T19:21:42.372Z,8.63
2023-04-02T19:24:29.906Z,8.61
2023-04-02T19:27:12.644Z,8.65
2023-04-02T19:30:14.742Z,8.73
2023-04-02T19:33:14.128Z,8.73
2023-04-02T19:35:55.550Z,8.56
2023-04-02T19:38:53.439Z,8.50
2023-04-02T19:42:03.705Z,8.43
2023-04-02T19:44:32.056Z,8.53
2023-04-02T19:47:00.881Z,8.35
2023-04-02T19:49:33.939Z,8.54
2023-04-02T19:52:03.313Z,8.54
2023-04-02T19:54:31.934Z,8.44
2023-04-02T19:57:00.731Z,8.63
2023-04-02T19:59:30.336Z,8.32
2023-04-02T20:02:02.253Z,8.40
2023-04-02T20:04:31.184Z,8.50
2023-04-02T20:06:59.573Z,8.48
2023-04-02T20:09:29.702Z,8.31
2023-04-02T20:11:58.546Z,8.12
2023-04-02T20:14:26.989Z,8.23
2023-04-02T20:16:55.398Z,8.24
2023-04-02T20:19:24.057Z,8.07
2023-04-02T20:21:52.388Z,8.03
2023-04-02T20:24:20.769Z,8.13
2023-04-02T20:26:49.641Z,7.84
2023-04-02T20:29:18.143Z,7.77
2023-04-02T20:31:46.554Z,7.89
2023-04-02T20:34:15.313Z,7.93
2023-04-02T20:36:44.457Z,7.97
2023-04-02T20:39:19.227Z,7.81
2023-04-02T20:41:48.879Z,7.83
2023-04-02T20:44:17.455Z,7.88
2023-04-02T20:46:45.577Z,7.71
2023-04-02T20:49:14.214Z,7.76
2023-04-02T20:51:43.031Z,7.69
2023-04-02T20:54:11.422Z,7.79
2023-04-02T20:56:40.049Z,7.71
2023-04-02T20:59:08.315Z,7.69
2023-04-02T21:01:37.661Z,7.71
2023-04-02T21:04:06.251Z,7.59
2023-04-02T21:06:37.497Z,7.55
2023-04-02T21:09:08.887Z,7.54
2023-04-02T21:11:37.438Z,7.57
2023-04-02T21:14:06.543Z,7.52
2023-04-02T21:16:35.844Z,7.65
2023-04-02T21:19:07.477Z,7.54
2023-04-02T21:21:38.181Z,7.62
2023-04-02T21:24:08.306Z,7.65
2023-04-02T21:26:39.326Z,7.52
2023-04-02T21:29:07.848Z,7.52
2023-04-02T21:31:38.185Z,7.52
2023-04-02T21:34:08.561Z,7.58
2023-04-02T21:36:41.952Z,7.47
2023-04-02T21:39:15.815Z,7.50
2023-04-02T21:41:46.866Z,7.71
2023-04-02T21:44:17.983Z,7.65
2023-04-02T21:46:46.385Z,7.45
2023-04-02T21:49:17.623Z,7.50
2023-04-02T21:51:47.568Z,7.63
2023-04-02T21:54:16.194Z,7.56
2023-04-02T21:56:46.112Z,7.44
2023-04-02T21:59:16.897Z,7.48
2023-04-02T22:01:48.582Z,7.36
2023-04-02T22:04:25.711Z,7.38
2023-04-02T22:06:54.275Z,7.34
2023-04-02T22:09:25.193Z,7.32
2023-04-02T22:11:59.430Z,7.29
2023-04-02T22:14:28.585Z,7.34
2023-04-02T22:16:58.764Z,7.40
2023-04-02T22:19:28.001Z,7.37
2023-04-02T22:21:56.779Z,7.32
2023-04-02T22:24:25.306Z,7.27
2023-04-02T22:26:54.312Z,7.22
2023-04-02T22:29:22.633Z,7.13
2023-04-02T22:31:50.925Z,7.28
2023-04-02T22:34:19.711Z,7.27
2023-04-02T22:36:48.123Z,7.20
2023-04-02T22:39:17.127Z,7.21
2023-04-02T22:41:46.352Z,7.06
2023-04-02T22:44:15.885Z,7.04
2023-04-02T22:46:44.059Z,7.00
2023-04-02T22:49:15.993Z,6.95
2023-04-02T22:51:45.617Z,6.87
2023-04-02T22:54:14.056Z,6.90
2023-04-02T22:56:42.368Z,6.94
2023-04-02T22:59:10.906Z,6.96
2023-04-02T23:01:39.237Z,6.92
2023-04-02T23:04:07.669Z,6.99
2023-04-02T23:06:35.982Z,7.04
2023-04-02T23:09:04.626Z,6.91
2023-04-02T23:11:32.878Z,6.94
2023-04-02T23:14:01.400Z,6.93
2023-04-02T23:16:30.013Z,6.83
2023-04-02T23:18:58.996Z,6.88
2023-04-02T23:21:27.367Z,6.79
2023-04-02T23:23:56.370Z,6.83
2023-04-02T23:26:29.454Z,6.87
2023-04-02T23:29:00.669Z,6.88
2023-04-02T23:31:29.831Z,6.64
2023-04-02T23:33:58.691Z,6.67
2023-04-02T23:36:35.946Z,6.64
2023-04-02T23:39:10.645Z,6.79
2023-04-02T23:41:40.939Z,6.74
2023-04-02T23:44:10.407Z,6.81
2023-04-02T23:46:38.706Z,6.80
2023-04-02T23:49:08.111Z,6.78
2023-04-02T23:51:36.419Z,6.85
2023-04-02T23:54:04.816Z,6.77
2023-04-02T23:56:33.054Z,6.51
2023-04-02T23:59:01.550Z,6.68
